Time;durP1;ratioP1;P1;durP2;ratioP2;P2;SDS_P1;SDS_P2;PMS_P1;PMS_P2;Temp;Humidity;BMP_temperature;BMP_pressure;BME280_temperature;BME280_humidity;BME280_pressure;Samples;Min_cycle;Max_cycle;Signal;HPM_P1;HPM_P2
2021/04/11 07:36:25;;;;;;;3.60;3.20;;;19.30;26.50;;;;;;6283397;22;20537;-92
2021/04/11 07:42:35;;;;;;;2.60;2.40;;;19.20;27.00;;;;;;6280575;22;20356;-92
2021/04/11 07:45:10;;;;;;;3.70;3.40;;;19.30;27.10;;;;;;6254214;22;20388;-92
2021/04/11 07:47:58;;;;;;;3.43;3.13;;;19.30;26.80;;;;;;6254110;22;20868;-92
2021/04/11 07:50:48;;;;;;;3.17;2.93;;;19.40;26.80;;;;;;6254747;22;20384;-91
2021/04/11 07:57:04;;;;;;;3.40;3.20;;;19.20;26.20;;;;;;6288087;22;20435;-92
2021/04/11 08:00:00;;;;;;;2.83;2.63;;;19.50;26.30;;;;;;6257239;22;20384;-91
2021/04/11 08:02:51;;;;;;;3.13;2.83;;;19.80;26.70;;;;;;6255127;22;20433;-92
2021/04/11 08:05:52;;;;;;;4.50;2.90;;;19.40;26.80;;;;;;6253606;22;20409;-94
2021/04/11 08:08:55;;;;;;;4.00;2.50;;;19.60;27.30;;;;;;6256618;22;20373;-92
2021/04/11 08:11:49;;;;;;;2.77;2.50;;;19.30;27.30;;;;;;6253809;22;20398;-93
2021/04/11 08:14:38;;;;;;;3.20;3.00;;;19.20;27.00;;;;;;6254430;22;20383;-90
2021/04/11 08:17:45;;;;;;;5.47;3.30;;;19.40;27.10;;;;;;6253869;22;20387;-93
2021/04/11 08:20:44;;;;;;;3.70;3.40;;;18.90;27.50;;;;;;6253620;22;20380;-93
2021/04/11 08:23:47;;;;;;;2.73;2.53;;;19.10;27.60;;;;;;6253588;22;20390;-92
2021/04/11 08:26:30;;;;;;;2.37;2.20;;;19.40;27.70;;;;;;6254204;22;20380;-92
2021/04/11 08:28:55;;;;;;;5.43;3.30;;;19.70;27.10;;;;;;6255329;22;20350;-94
2021/04/11 08:35:33;;;;;;;2.83;2.63;;;20.20;26.80;;;;;;6281617;22;20156;-91
2021/04/11 08:38:31;;;;;;;3.47;2.70;;;20.10;26.40;;;;;;6253559;22;20857;-92
2021/04/11 08:41:42;;;;;;;2.30;2.10;;;20.10;26.20;;;;;;6253399;22;20380;-92
2021/04/11 08:44:27;;;;;;;2.00;1.90;;;20.10;26.30;;;;;;6253539;22;20912;-90
2021/04/11 08:47:11;;;;;;;2.40;2.20;;;20.30;26.30;;;;;;6252892;22;20850;-89
2021/04/11 08:50:26;;;;;;;2.67;2.47;;;20.70;26.50;;;;;;6252789;22;20380;-90
2021/04/11 08:53:23;;;;;;;2.63;2.40;;;20.70;25.90;;;;;;6253888;22;20415;-90
2021/04/11 08:55:52;;;;;;;2.37;2.17;;;20.70;25.60;;;;;;6254163;22;20442;-89
2021/04/11 08:58:45;;;;;;;1.97;1.87;;;20.70;25.40;;;;;;6253831;22;20380;-90
2021/04/11 09:08:52;;;;;;;2.23;1.67;;;20.90;24.50;;;;;;6283404;22;20383;-92
2021/04/11 09:11:17;;;;;;;2.13;1.60;;;20.80;25.00;;;;;;6257425;22;20390;-92
2021/04/11 09:17:46;;;;;;;2.53;2.07;;;21.00;24.50;;;;;;6281050;22;20132;-93
2021/04/11 09:20:28;;;;;;;2.27;2.00;;;20.70;24.20;;;;;;6254361;22;20415;-90
2021/04/11 09:23:21;;;;;;;3.80;2.33;;;21.30;24.60;;;;;;6253750;22;20378;-90
2021/04/11 09:26:11;;;;;;;3.93;1.67;;;21.20;24.10;;;;;;6253230;22;20414;-91
2021/04/11 09:29:11;;;;;;;2.13;1.83;;;21.30;24.00;;;;;;6253192;22;20680;-92
2021/04/11 09:32:09;;;;;;;2.53;1.97;;;21.30;23.20;;;;;;6252895;22;20423;-91
2021/04/11 09:35:13;;;;;;;4.00;2.13;;;21.20;23.80;;;;;;6253634;22;20453;-91
2021/04/11 09:41:31;;;;;;;2.60;2.00;;;21.00;24.20;;;;;;6280945;22;20736;-91
2021/04/11 09:44:16;;;;;;;2.63;2.40;;;21.10;24.10;;;;;;6252383;22;20939;-92
2021/04/11 09:49:52;;;;;;;3.30;1.90;;;21.00;23.30;;;;;;6279540;22;20374;-91
2021/04/11 09:52:43;;;;;;;2.40;2.20;;;21.30;22.90;;;;;;6252688;22;20401;-91
2021/04/11 09:55:35;;;;;;;2.20;1.90;;;21.80;22.70;;;;;;6253521;22;20391;-92
2021/04/11 09:58:26;;;;;;;2.67;1.93;;;22.00;22.60;;;;;;6252848;22;20380;-90
2021/04/11 10:01:38;;;;;;;2.47;2.27;;;21.50;22.10;;;;;;6251742;22;20445;-91
2021/04/11 10:04:24;;;;;;;2.03;1.80;;;21.90;21.80;;;;;;6252563;22;20358;-91
2021/04/11 10:07:14;;;;;;;2.80;1.73;;;21.40;22.50;;;;;;6251975;22;20379;-91
2021/04/11 10:09:52;;;;;;;1.77;1.67;;;21.50;23.40;;;;;;6252412;22;20442;-90
2021/04/11 10:12:43;;;;;;;3.77;1.77;;;22.00;22.60;;;;;;6252554;22;20423;-90
2021/04/11 10:15:34;;;;;;;2.90;1.90;;;22.20;23.00;;;;;;6255701;22;20382;-90
2021/04/11 10:18:44;;;;;;;2.50;2.03;;;22.20;22.10;;;;;;6253704;22;20382;-91
2021/04/11 10:21:25;;;;;;;1.60;1.50;;;22.30;22.20;;;;;;6254256;22;20365;-90
2021/04/11 10:24:13;;;;;;;2.27;2.07;;;22.50;22.10;;;;;;6255114;22;20205;-90
2021/04/11 10:27:04;;;;;;;2.00;1.80;;;22.70;21.70;;;;;;6256275;22;20701;-90
2021/04/11 10:29:32;;;;;;;2.47;1.53;;;22.70;22.00;;;;;;6257454;22;20354;-90
2021/04/11 10:42:36;;;;;;;3.50;2.00;;;23.60;20.50;;;;;;6253444;23;20370;-94
2021/04/11 10:45:42;;;;;;;2.50;1.70;;;23.90;20.40;;;;;;6251230;23;20370;-92
2021/04/11 10:48:42;;;;;;;1.90;1.43;;;24.10;19.90;;;;;;6251279;23;20353;-92
2021/04/11 10:51:20;;;;;;;1.77;1.50;;;24.10;20.50;;;;;;6224751;23;20355;-92
2021/04/11 10:54:29;;;;;;;2.40;1.73;;;23.90;19.50;;;;;;6250774;23;20615;-91
2021/04/11 10:57:01;;;;;;;2.40;1.30;;;24.00;19.90;;;;;;6224063;23;20831;-92
2021/04/11 10:59:54;;;;;;;3.23;1.43;;;24.00;19.70;;;;;;6250481;23;20154;-91
2021/04/11 11:02:51;;;;;;;1.63;1.50;;;23.90;20.00;;;;;;6223889;23;20828;-89
2021/04/11 11:05:43;;;;;;;2.47;1.90;;;23.70;20.20;;;;;;6249075;23;20388;-90
2021/04/11 11:08:32;;;;;;;2.37;1.60;;;23.50;20.10;;;;;;6227596;23;20408;-91
2021/04/11 11:11:14;;;;;;;3.57;1.67;;;23.60;20.50;;;;;;6250912;23;20388;-91
2021/04/11 11:13:45;;;;;;;1.87;1.77;;;23.80;20.20;;;;;;6250476;23;20695;-94
2021/04/11 11:20:23;;;;;;;1.70;1.60;;;24.10;19.40;;;;;;6253927;23;20808;-91
2021/04/11 11:39:18;;;;;;;1.53;1.03;;;23.80;19.50;;;;;;6282666;22;20356;-93
2021/04/11 11:42:01;;;;;;;1.93;1.20;;;24.00;19.40;;;;;;6255241;22;20373;-93
2021/04/11 11:44:32;;;;;;;2.30;1.17;;;24.00;19.20;;;;;;6256537;22;20485;-93
2021/04/11 11:47:24;;;;;;;2.20;1.30;;;24.20;19.30;;;;;;6253569;22;20420;-86
2021/04/11 11:53:08;;;;;;;2.00;1.20;;;24.40;18.50;;;;;;6293873;22;20434;-94
2021/04/11 11:59:24;;;;;;;1.30;1.20;;;24.20;18.80;;;;;;6286396;22;20340;-92
2021/04/11 12:09:31;;;;;;;1.10;1.00;;;23.70;18.50;;;;;;6195245;23;20406;-91
2021/04/11 12:12:25;;;;;;;1.57;1.30;;;23.90;18.70;;;;;;6165622;23;20429;-91
2021/04/11 12:14:50;;;;;;;1.83;1.53;;;23.80;19.50;;;;;;6165413;23;20389;-91
2021/04/11 12:20:43;;;;;;;1.73;1.20;;;23.90;19.00;;;;;;6187402;23;20162;-92
2021/04/11 12:23:40;;;;;;;1.87;1.50;;;24.00;19.30;;;;;;6162736;23;20384;-91
2021/04/11 12:26:06;;;;;;;3.23;1.27;;;23.80;19.40;;;;;;6162340;23;20394;-90
2021/04/11 12:28:32;;;;;;;1.57;1.40;;;23.70;20.30;;;;;;6162770;23;20371;-90
2021/04/11 12:37:55;;;;;;;1.40;1.30;;;24.00;19.70;;;;;;6187267;23;20342;-89
2021/04/11 12:40:30;;;;;;;1.00;0.90;;;24.00;19.10;;;;;;6254026;22;20449;-91
2021/04/11 12:43:40;;;;;;;1.20;1.10;;;23.90;19.10;;;;;;6253577;22;20453;-90
2021/04/11 12:46:45;;;;;;;1.27;1.13;;;24.10;19.20;;;;;;6253474;22;20443;-89
2021/04/11 12:49:23;;;;;;;2.03;1.33;;;24.30;19.50;;;;;;6254280;22;20362;-91
2021/04/11 12:52:17;;;;;;;3.10;1.20;;;24.60;19.00;;;;;;6253979;22;20397;-91
2021/04/11 12:55:21;;;;;;;1.20;0.97;;;24.80;18.80;;;;;;6253809;22;20385;-89
2021/04/11 12:58:09;;;;;;;2.13;1.43;;;25.00;18.30;;;;;;6254232;22;20403;-93
2021/04/11 13:01:00;;;;;;;1.40;1.13;;;24.70;18.20;;;;;;6254764;22;20350;-91
2021/04/11 13:03:57;;;;;;;1.40;1.30;;;24.50;19.00;;;;;;6252969;22;20404;-90
2021/04/11 13:10:20;;;;;;;1.43;1.13;;;24.10;19.50;;;;;;6280369;22;20329;-92
2021/04/11 13:13:31;;;;;;;2.30;1.00;;;23.90;19.60;;;;;;6253381;22;20423;-90
2021/04/11 13:16:17;;;;;;;1.27;1.17;;;23.60;20.20;;;;;;6216312;22;20387;-90
2021/04/11 13:19:04;;;;;;;1.40;0.97;;;23.50;20.10;;;;;;6254129;22;20389;-90
2021/04/11 13:22:08;;;;;;;2.93;1.30;;;23.50;20.10;;;;;;6254835;22;20359;-90
2021/04/11 13:24:53;;;;;;;1.37;1.20;;;23.60;19.80;;;;;;6108936;23;20358;-88
2021/04/11 13:27:32;;;;;;;1.63;1.00;;;23.50;19.70;;;;;;6102272;23;20391;-90
2021/04/11 13:30:04;;;;;;;2.10;1.50;;;23.20;19.90;;;;;;6242959;22;20389;-91
2021/04/11 13:32:41;;;;;;;3.00;1.20;;;23.40;20.10;;;;;;6252761;22;20394;-93
2021/04/11 13:35:29;;;;;;;4.80;1.40;;;23.60;19.90;;;;;;6238125;23;20892;-90
2021/04/11 13:38:00;;;;;;;2.87;1.53;;;23.60;19.70;;;;;;6226866;23;20467;-91
2021/04/11 13:40:31;;;;;;;2.67;1.30;;;23.70;20.20;;;;;;6226629;23;20351;-92
2021/04/11 13:56:38;;;;;;;1.60;1.13;;;23.00;21.20;;;;;;6250133;23;20335;-89
2021/04/11 13:59:23;;;;;;;1.43;1.20;;;23.30;21.70;;;;;;6223082;23;20369;-91
2021/04/11 14:02:20;;;;;;;1.40;1.30;;;23.20;20.80;;;;;;6227278;23;20448;-91
2021/04/11 14:05:17;;;;;;;4.13;1.90;;;23.90;20.10;;;;;;6228535;23;20355;-90
2021/04/11 14:07:46;;;;;;;1.10;1.00;;;23.90;20.10;;;;;;6226327;23;20395;-91
2021/04/11 14:10:49;;;;;;;2.63;1.57;;;23.90;20.40;;;;;;6225659;23;20854;-91
2021/04/11 14:13:37;;;;;;;1.60;1.10;;;23.70;20.20;;;;;;6226142;23;20399;-91
2021/04/11 14:16:22;;;;;;;1.93;1.23;;;23.20;20.00;;;;;;6224609;23;20405;-90
2021/04/11 14:19:06;;;;;;;1.93;1.10;;;23.10;21.00;;;;;;6224785;23;20377;-90
2021/04/11 14:21:55;;;;;;;1.03;0.97;;;23.60;21.00;;;;;;6252058;23;20358;-91
2021/04/11 14:24:48;;;;;;;1.50;1.13;;;23.70;20.20;;;;;;6224779;23;20415;-91
2021/04/11 14:27:30;;;;;;;2.10;1.13;;;23.90;20.40;;;;;;6223177;23;20367;-91
2021/04/11 14:30:20;;;;;;;1.63;1.17;;;24.00;20.20;;;;;;6225580;23;20358;-91
2021/04/11 14:33:19;;;;;;;1.90;1.30;;;24.00;19.90;;;;;;6222380;23;20464;-91
2021/04/11 14:36:15;;;;;;;1.50;1.23;;;24.10;20.20;;;;;;6248576;22;20438;-91
2021/04/11 14:39:04;;;;;;;3.60;1.60;;;24.30;20.20;;;;;;6251993;22;20351;-91
2021/04/11 14:41:38;;;;;;;2.63;1.20;;;24.40;19.40;;;;;;6252365;22;20350;-90
2021/04/11 14:44:06;;;;;;;1.67;1.17;;;24.50;19.60;;;;;;6252646;22;20453;-91
2021/04/11 14:49:38;;;;;;;1.83;1.50;;;24.50;19.50;;;;;;6279780;22;20348;-93
2021/04/11 14:55:58;;;;;;;1.70;1.50;;;24.10;19.90;;;;;;6280870;22;20186;-92
2021/04/11 14:58:58;;;;;;;1.73;1.30;;;24.20;19.70;;;;;;6252916;22;20486;-92
2021/04/11 15:01:28;;;;;;;3.70;1.10;;;24.00;19.80;;;;;;6253145;22;20441;-91
2021/04/11 15:13:31;;;;;;;3.13;1.87;;;22.70;21.80;;;;;;6281946;22;20374;-90
2021/04/11 15:16:47;;;;;;;1.43;1.33;;;22.70;22.20;;;;;;6254224;22;20696;-90
2021/04/11 15:26:09;;;;;;;1.77;1.33;;;22.50;22.30;;;;;;6281689;22;20373;-91
2021/04/11 15:28:58;;;;;;;2.30;1.50;;;22.30;22.80;;;;;;6255153;22;20380;-89
2021/04/11 15:31:33;;;;;;;3.70;1.70;;;21.90;24.20;;;;;;6255939;22;20419;-92
2021/04/11 15:34:40;;;;;;;4.63;1.90;;;21.00;26.70;;;;;;6263968;22;20435;-95
2021/04/11 15:43:49;;;;;;;3.13;2.37;;;19.80;34.00;;;;;;6147973;22;20379;-88
2021/04/11 15:46:22;;;;;;;3.00;2.10;;;19.80;37.40;;;;;;6255261;22;20367;-93
2021/04/11 15:48:53;;;;;;;3.60;2.20;;;19.50;36.50;;;;;;6262897;22;20463;-91
2021/04/11 15:51:26;;;;;;;2.93;2.20;;;19.30;37.40;;;;;;6263700;22;20375;-91
2021/04/11 15:57:18;;;;;;;2.70;2.37;;;19.50;37.50;;;;;;6286455;22;20383;-91
2021/04/11 15:59:55;;;;;;;3.35;2.35;;;19.80;39.20;;;;;;6254613;22;20409;-92
2021/04/11 16:02:22;;;;;;;5.40;3.60;;;19.50;40.20;;;;;;6253669;22;20157;-88
2021/04/11 16:05:20;;;;;;;5.60;3.20;;;19.40;40.20;;;;;;6252655;22;20920;-88
2021/04/11 16:11:38;;;;;;;3.03;2.72;;;19.20;40.60;;;;;;6221185;22;20390;-89
2021/04/11 16:14:31;;;;;;;2.40;1.93;;;19.20;41.50;;;;;;6253901;22;20149;-90
2021/04/11 16:17:21;;;;;;;3.33;2.47;;;18.90;41.80;;;;;;6253896;22;20384;-91
2021/04/11 16:20:26;;;;;;;3.87;3.50;;;18.70;41.40;;;;;;6253875;22;20379;-91
2021/04/11 16:22:59;;;;;;;2.83;2.60;;;18.80;41.20;;;;;;6253539;22;20740;-91
2021/04/11 16:25:42;;;;;;;3.10;2.80;;;18.80;40.40;;;;;;6254083;22;20379;-91
2021/04/11 16:28:41;;;;;;;2.50;2.30;;;18.90;40.80;;;;;;6253617;22;20371;-90
2021/04/11 16:31:48;;;;;;;3.67;2.80;;;18.70;41.30;;;;;;6252565;22;20761;-92
2021/04/11 16:34:52;;;;;;;3.60;3.23;;;19.10;41.70;;;;;;6253210;22;20268;-91
2021/04/11 16:37:37;;;;;;;3.57;3.27;;;18.80;40.80;;;;;;6253042;22;20388;-91
2021/04/11 16:40:39;;;;;;;3.40;2.50;;;18.40;41.00;;;;;;6255771;22;20760;-92
2021/04/11 16:47:08;;;;;;;7.93;3.37;;;18.50;40.80;;;;;;6280769;22;20782;-92
2021/04/11 16:52:52;;;;;;;8.10;3.20;;;18.50;42.30;;;;;;6280222;22;20407;-93
2021/04/11 16:55:35;;;;;;;2.27;2.03;;;18.20;43.00;;;;;;6252682;22;20383;-93
2021/04/11 16:58:33;;;;;;;3.08;2.20;;;18.00;42.70;;;;;;6251753;22;20891;-92
2021/04/11 17:01:18;;;;;;;3.60;2.80;;;17.90;42.70;;;;;;6255691;22;20153;-93
2021/04/11 17:04:31;;;;;;;5.95;2.55;;;17.50;43.90;;;;;;6253389;22;20382;-94
2021/04/11 17:07:35;;;;;;;4.47;2.80;;;17.70;43.90;;;;;;6255041;22;20161;-92
2021/04/11 17:13:33;;;;;;;1.80;1.70;;;17.20;44.20;;;;;;6281124;22;20522;-90
2021/04/11 17:16:39;;;;;;;2.40;2.03;;;17.00;44.00;;;;;;6254892;22;20442;-91
2021/04/11 17:19:30;;;;;;;4.20;2.13;;;16.90;43.40;;;;;;6255987;22;20375;-91
2021/04/11 17:22:29;;;;;;;2.90;2.40;;;17.00;44.30;;;;;;6253299;22;20411;-90
2021/04/11 17:25:34;;;;;;;2.30;2.10;;;16.70;44.70;;;;;;6252759;22;20411;-93
2021/04/11 17:28:31;;;;;;;2.40;1.80;;;16.60;43.90;;;;;;6252211;22;20375;-93
2021/04/11 17:31:02;;;;;;;2.43;1.67;;;16.50;44.50;;;;;;6245535;22;20380;-93
2021/04/11 17:33:38;;;;;;;2.93;1.73;;;16.80;43.80;;;;;;6253277;22;20454;-91
2021/04/11 17:36:10;;;;;;;2.63;1.60;;;17.00;42.70;;;;;;6252890;22;20391;-93
2021/04/11 17:39:06;;;;;;;2.00;1.90;;;16.80;43.30;;;;;;6253629;22;20396;-91
2021/04/11 17:41:48;;;;;;;1.53;1.43;;;16.60;43.10;;;;;;6252821;22;20467;-92
2021/04/11 17:44:35;;;;;;;2.03;1.83;;;17.00;43.20;;;;;;6253243;22;20411;-90
2021/04/11 17:47:35;;;;;;;2.03;1.50;;;17.00;43.00;;;;;;6253885;22;20380;-90
2021/04/11 17:50:24;;;;;;;2.70;1.53;;;16.90;43.00;;;;;;6253820;22;20380;-90
2021/04/11 17:53:23;;;;;;;4.13;1.50;;;16.80;43.30;;;;;;6253719;22;20419;-90
2021/04/11 17:56:30;;;;;;;1.97;1.87;;;16.90;43.40;;;;;;6253384;22;20458;-91
2021/04/11 17:59:33;;;;;;;2.03;1.50;;;16.90;43.70;;;;;;6251401;22;20380;-90
2021/04/11 18:02:13;;;;;;;3.33;1.30;;;16.70;43.60;;;;;;6251850;22;20850;-92
2021/04/11 18:05:03;;;;;;;3.30;1.70;;;17.10;43.90;;;;;;6253032;22;20371;-91
2021/04/11 18:07:32;;;;;;;3.03;1.73;;;17.00;44.00;;;;;;6252507;22;20376;-89
2021/04/11 18:10:13;;;;;;;2.47;2.07;;;17.20;44.30;;;;;;6253167;22;20380;-90
2021/04/11 18:12:57;;;;;;;2.30;2.10;;;17.30;45.30;;;;;;6254012;22;20423;-90
2021/04/11 18:15:47;;;;;;;2.10;1.90;;;17.20;44.60;;;;;;6255069;22;20674;-90
2021/04/11 18:18:42;;;;;;;2.15;1.95;;;16.90;44.80;;;;;;6185579;22;20456;-92
2021/04/11 18:21:17;;;;;;;1.70;1.60;;;17.30;46.10;;;;;;6253670;22;20145;-92
2021/04/11 18:24:06;;;;;;;2.77;2.37;;;17.10;46.00;;;;;;6254234;22;20388;-91
2021/04/11 18:26:51;;;;;;;2.20;1.70;;;16.60;45.90;;;;;;6254286;22;20434;-93
2021/04/11 18:29:24;;;;;;;1.50;1.40;;;16.70;46.10;;;;;;6252519;22;20719;-90
2021/04/11 18:32:33;;;;;;;2.13;1.50;;;15.40;46.00;;;;;;6252521;22;20419;-90
2021/04/11 18:39:00;;;;;;;1.03;0.90;;;15.20;50.00;;;;;;6279976;22;20386;-90
2021/04/11 18:41:58;;;;;;;1.20;1.10;;;14.80;49.80;;;;;;6253549;22;20407;-89
2021/04/11 18:44:51;;;;;;;2.30;1.53;;;15.10;49.70;;;;;;6252168;22;20830;-90
2021/04/11 18:47:30;;;;;;;1.83;1.70;;;15.10;48.80;;;;;;6254231;22;20433;-92
2021/04/11 18:50:32;;;;;;;1.30;1.20;;;15.40;48.40;;;;;;6255937;22;20385;-92
2021/04/11 18:53:46;;;;;;;1.15;0.90;;;16.00;48.00;;;;;;6237748;22;20426;-91
2021/04/11 18:56:33;;;;;;;1.37;1.10;;;16.10;47.60;;;;;;6260926;22;20149;-91
2021/04/11 18:59:13;;;;;;;1.27;0.90;;;16.50;46.60;;;;;;6256073;22;20379;-91
2021/04/11 19:02:13;;;;;;;0.80;0.80;;;16.20;46.20;;;;;;6258969;22;20375;-91
2021/04/11 19:04:48;;;;;;;0.93;0.70;;;16.00;45.00;;;;;;6257245;22;20379;-91
2021/04/11 19:07:25;;;;;;;1.47;1.27;;;15.40;45.00;;;;;;6256481;22;20383;-90
2021/04/11 19:10:34;;;;;;;0.70;0.70;;;15.50;46.00;;;;;;6257765;22;20387;-90
2021/04/11 19:13:49;;;;;;;1.50;1.00;;;15.40;47.40;;;;;;6255123;22;20427;-89
2021/04/11 19:16:46;;;;;;;0.77;0.77;;;15.40;47.00;;;;;;6254371;22;20720;-90
2021/04/11 19:19:41;;;;;;;1.53;1.23;;;15.20;47.40;;;;;;6203684;22;20379;-91
2021/04/11 19:22:27;;;;;;;0.97;0.80;;;15.40;47.40;;;;;;6256666;22;20391;-91
2021/04/11 19:25:14;;;;;;;0.70;0.60;;;15.40;47.30;;;;;;6257459;22;20417;-91
2021/04/11 19:28:08;;;;;;;0.80;0.80;;;15.60;47.60;;;;;;6254847;22;20913;-90
2021/04/11 19:30:56;;;;;;;0.60;0.60;;;15.60;47.80;;;;;;6257814;22;20386;-91
2021/04/11 19:36:54;;;;;;;1.00;0.90;;;15.00;48.00;;;;;;6286233;22;20368;-90
2021/04/11 19:39:49;;;;;;;1.20;1.00;;;15.10;48.50;;;;;;6257922;22;20418;-94
2021/04/11 19:42:39;;;;;;;0.90;0.80;;;15.10;50.20;;;;;;6259175;22;20395;-91
2021/04/11 19:45:05;;;;;;;0.93;0.83;;;14.60;50.70;;;;;;6259850;22;20834;-92
2021/04/11 19:47:52;;;;;;;0.97;0.97;;;14.70;51.00;;;;;;6262303;22;20395;-92
2021/04/11 19:53:48;;;;;;;1.73;1.27;;;15.10;51.10;;;;;;6279916;22;20386;-92
2021/04/11 19:56:48;;;;;;;2.10;1.90;;;14.90;50.90;;;;;;6253214;22;20378;-92
2021/04/11 19:59:46;;;;;;;2.00;1.30;;;15.00;51.00;;;;;;6254947;22;20407;-92
2021/04/11 20:02:35;;;;;;;1.17;1.07;;;14.80;50.90;;;;;;6253312;22;20437;-90
2021/04/11 20:05:25;;;;;;;1.50;1.40;;;15.00;50.70;;;;;;6251651;22;20376;-90
2021/04/11 20:08:13;;;;;;;1.90;1.23;;;15.20;50.80;;;;;;6252575;22;20438;-90
2021/04/11 20:11:08;;;;;;;1.20;0.90;;;15.10;50.70;;;;;;6252676;22;20818;-89
2021/04/11 20:13:58;;;;;;;1.10;1.00;;;14.70;50.40;;;;;;6251610;22;20415;-90
2021/04/11 20:16:27;;;;;;;1.70;1.27;;;15.30;50.90;;;;;;6252087;22;20395;-89
2021/04/11 20:19:21;;;;;;;1.23;1.13;;;15.00;51.40;;;;;;6250103;22;20850;-90
2021/04/11 20:25:35;;;;;;;1.33;1.00;;;15.00;51.70;;;;;;6277762;22;20394;-89
2021/04/11 20:28:48;;;;;;;1.43;1.33;;;14.70;51.50;;;;;;6250646;22;20737;-89
2021/04/11 20:31:57;;;;;;;0.80;0.70;;;14.90;53.10;;;;;;6238339;22;20398;-89
2021/04/11 20:34:50;;;;;;;0.93;0.90;;;14.20;53.20;;;;;;6250919;22;20434;-89
2021/04/11 20:37:54;;;;;;;1.77;0.93;;;14.10;54.00;;;;;;6251361;22;20364;-90
2021/04/11 20:40:58;;;;;;;1.20;1.10;;;14.00;54.10;;;;;;6258987;22;20451;-89
2021/04/11 20:43:53;;;;;;;0.80;0.70;;;14.10;54.00;;;;;;6258888;22;20470;-89
2021/04/11 20:46:47;;;;;;;1.07;0.80;;;14.10;54.20;;;;;;6257673;22;20435;-90
2021/04/11 20:50:03;;;;;;;2.57;2.37;;;13.90;54.20;;;;;;6255390;22;20391;-91
2021/04/11 20:52:47;;;;;;;2.77;2.47;;;13.80;53.60;;;;;;6252940;22;20885;-91
2021/04/11 20:55:51;;;;;;;2.07;1.87;;;13.40;51.10;;;;;;6253257;22;20413;-88
2021/04/11 20:58:42;;;;;;;2.50;2.30;;;13.20;50.10;;;;;;6259861;22;20363;-91
